BAW2A LSZH-EGLL
Flight info
| Callsign | BAW2A |
|---|---|
| Flight time | 1h 16m |
| Altitude | 34000 |
| Route | VEBIT1X VEBIT T10 TORPA DCT REKLA DCT RLP DCT ROTSI DCT KOTUN DCT NINAL DCT ABNUR DCT DIMAL DCT ALESO ALESO1H |
| Aircraft | A339/H-SADE1E2E3GHIJ3J5M1P2RWXY/LB2D1 |
Departure
| Time | 2026-05-05 19:28 |
|---|---|
| Airport | Zürich Airport (LSZH) |
Arrival
| Time | 2026-05-05 20:45 |
|---|---|
| Airport | London Heathrow Airport (EGLL) |
| Time | Latitude | Longitude | Altitude | Speed | Heading |
|---|---|---|---|---|---|
| 2026-05-05 18:40 | 47.45166 | 8.55898 | 1398 ft | 0 kts | 186° |
| 2026-05-05 19:15 | 47.45171 | 8.55899 | 1403 ft | 2 kts | 184° |
| 2026-05-05 19:15 | 47.45182 | 8.55898 | 1413 ft | 2 kts | 194° |
| 2026-05-05 19:15 | 47.45197 | 8.55903 | 1404 ft | 2 kts | 184° |
| 2026-05-05 19:16 | 47.45213 | 8.55905 | 1408 ft | 2 kts | 186° |
| 2026-05-05 19:16 | 47.45230 | 8.55908 | 1403 ft | 2 kts | 219° |
| 2026-05-05 19:16 | 47.45242 | 8.55923 | 1411 ft | 2 kts | 241° |
| 2026-05-05 19:16 | 47.45250 | 8.55945 | 1409 ft | 2 kts | 279° |
| 2026-05-05 19:17 | 47.45249 | 8.55950 | 1408 ft | 0 kts | 277° |
| 2026-05-05 19:20 | 47.45252 | 8.55918 | 1408 ft | 5 kts | 277° |
| 2026-05-05 19:20 | 47.45257 | 8.55857 | 1409 ft | 6 kts | 277° |
| 2026-05-05 19:21 | 47.45263 | 8.55787 | 1404 ft | 7 kts | 277° |
| 2026-05-05 19:21 | 47.45269 | 8.55709 | 1403 ft | 8 kts | 276° |
| 2026-05-05 19:21 | 47.45289 | 8.55593 | 1409 ft | 14 kts | 301° |
| 2026-05-05 19:21 | 47.45371 | 8.55511 | 1410 ft | 15 kts | 333° |
| 2026-05-05 19:22 | 47.45465 | 8.55446 | 1410 ft | 15 kts | 337° |
| 2026-05-05 19:22 | 47.45563 | 8.55383 | 1409 ft | 16 kts | 335° |
| 2026-05-05 19:22 | 47.45654 | 8.55376 | 1411 ft | 11 kts | 50° |
| 2026-05-05 19:22 | 47.45662 | 8.55488 | 1408 ft | 14 kts | 87° |
| 2026-05-05 19:23 | 47.45654 | 8.55647 | 1402 ft | 18 kts | 97° |
| 2026-05-05 19:23 | 47.45637 | 8.55843 | 1404 ft | 19 kts | 97° |
| 2026-05-05 19:23 | 47.45623 | 8.56038 | 1402 ft | 19 kts | 96° |
| 2026-05-05 19:23 | 47.45617 | 8.56208 | 1405 ft | 13 kts | 81° |
| 2026-05-05 19:24 | 47.45624 | 8.56231 | 1408 ft | 0 kts | 66° |
| 2026-05-05 19:25 | 47.45625 | 8.56232 | 1408 ft | 2 kts | 64° |
| 2026-05-05 19:25 | 47.45693 | 8.56274 | 1409 ft | 17 kts | 14° |
| 2026-05-05 19:25 | 47.45812 | 8.56293 | 1412 ft | 17 kts | 6° |
| 2026-05-05 19:26 | 47.45924 | 8.56309 | 1414 ft | 16 kts | 5° |
| 2026-05-05 19:26 | 47.46007 | 8.56322 | 1409 ft | 0 kts | 6° |
| 2026-05-05 19:27 | 47.46052 | 8.56329 | 1412 ft | 15 kts | 6° |
| 2026-05-05 19:27 | 47.46171 | 8.56346 | 1408 ft | 18 kts | 358° |
| 2026-05-05 19:27 | 47.46248 | 8.56283 | 1412 ft | 0 kts | 319° |
| 2026-05-05 19:28 | 47.46429 | 8.56038 | 1409 ft | 77 kts | 316° |
| 2026-05-05 19:28 | 47.47019 | 8.55231 | 1404 ft | 151 kts | 317° |
| 2026-05-05 19:28 | 47.47929 | 8.54028 | 1551 ft | 193 kts | 320° |
| 2026-05-05 19:28 | 47.48964 | 8.52754 | 2408 ft | 189 kts | 319° |
| 2026-05-05 19:29 | 47.49942 | 8.51527 | 3377 ft | 184 kts | 319° |
| 2026-05-05 19:29 | 47.51063 | 8.50450 | 3907 ft | 201 kts | 327° |
| 2026-05-05 19:29 | 47.52340 | 8.49401 | 4283 ft | 217 kts | 321° |
| 2026-05-05 19:29 | 47.53297 | 8.47720 | 4807 ft | 213 kts | 292° |
| 2026-05-05 19:30 | 47.53577 | 8.45616 | 5073 ft | 211 kts | 265° |
| 2026-05-05 19:30 | 47.53277 | 8.43497 | 5751 ft | 208 kts | 250° |
| 2026-05-05 19:30 | 47.52732 | 8.41517 | 6519 ft | 208 kts | 244° |
| 2026-05-05 19:30 | 47.52013 | 8.39690 | 7200 ft | 210 kts | 229° |
| 2026-05-05 19:31 | 47.50820 | 8.38428 | 7852 ft | 217 kts | 204° |
| 2026-05-05 19:31 | 47.49335 | 8.37926 | 8533 ft | 222 kts | 193° |
| 2026-05-05 19:31 | 47.47749 | 8.37507 | 8808 ft | 241 kts | 194° |
| 2026-05-05 19:31 | 47.46027 | 8.36996 | 8997 ft | 263 kts | 194° |
| 2026-05-05 19:32 | 47.44211 | 8.36416 | 9517 ft | 269 kts | 194° |
| 2026-05-05 19:32 | 47.42992 | 8.36017 | 9962 ft | 270 kts | 194° |
| 2026-05-05 19:32 | 47.40479 | 8.35067 | 10312 ft | 290 kts | 203° |
| 2026-05-05 19:32 | 47.39295 | 8.34109 | 10420 ft | 300 kts | 217° |
| 2026-05-05 19:33 | 47.37841 | 8.31806 | 10643 ft | 316 kts | 238° |
| 2026-05-05 19:33 | 47.36839 | 8.28909 | 11200 ft | 318 kts | 243° |
| 2026-05-05 19:33 | 47.35845 | 8.25973 | 11786 ft | 321 kts | 242° |
| 2026-05-05 19:33 | 47.34826 | 8.23034 | 12356 ft | 324 kts | 242° |
| 2026-05-05 19:34 | 47.33780 | 8.20064 | 12942 ft | 325 kts | 242° |
| 2026-05-05 19:34 | 47.32731 | 8.17105 | 13581 ft | 327 kts | 242° |
| 2026-05-05 19:34 | 47.31664 | 8.14115 | 14084 ft | 331 kts | 242° |
| 2026-05-05 19:35 | 47.29522 | 8.08096 | 15085 ft | 337 kts | 241° |
| 2026-05-05 19:35 | 47.28428 | 8.05026 | 15579 ft | 340 kts | 241° |
| 2026-05-05 19:35 | 47.27517 | 8.01796 | 16041 ft | 345 kts | 253° |
| 2026-05-05 19:35 | 47.27154 | 7.98285 | 16550 ft | 350 kts | 266° |
| 2026-05-05 19:36 | 47.27458 | 7.94696 | 17038 ft | 357 kts | 280° |
| 2026-05-05 19:36 | 47.28045 | 7.91120 | 17494 ft | 361 kts | 281° |
| 2026-05-05 19:36 | 47.28449 | 7.88736 | 17823 ft | 363 kts | 281° |
| 2026-05-05 19:36 | 47.28871 | 7.86272 | 18162 ft | 365 kts | 281° |
| 2026-05-05 19:37 | 47.29496 | 7.82626 | 18609 ft | 368 kts | 281° |
| 2026-05-05 19:37 | 47.30125 | 7.78957 | 19043 ft | 371 kts | 281° |
| 2026-05-05 19:37 | 47.30756 | 7.75251 | 19487 ft | 374 kts | 281° |
| 2026-05-05 19:37 | 47.31388 | 7.71522 | 19936 ft | 376 kts | 281° |
| 2026-05-05 19:38 | 47.32025 | 7.67760 | 20385 ft | 379 kts | 281° |
| 2026-05-05 19:38 | 47.32663 | 7.63975 | 20847 ft | 382 kts | 281° |
| 2026-05-05 19:38 | 47.33297 | 7.60209 | 21298 ft | 385 kts | 281° |
| 2026-05-05 19:38 | 47.33945 | 7.56350 | 21755 ft | 388 kts | 281° |
| 2026-05-05 19:39 | 47.34596 | 7.52467 | 22219 ft | 391 kts | 280° |
| 2026-05-05 19:39 | 47.35251 | 7.48550 | 22676 ft | 395 kts | 280° |
| 2026-05-05 19:39 | 47.35911 | 7.44597 | 23136 ft | 397 kts | 280° |
| 2026-05-05 19:39 | 47.36571 | 7.40620 | 23564 ft | 401 kts | 280° |
| 2026-05-05 19:40 | 47.37234 | 7.36622 | 23995 ft | 403 kts | 280° |
| 2026-05-05 19:40 | 47.37902 | 7.32590 | 24408 ft | 405 kts | 280° |
| 2026-05-05 19:40 | 47.38572 | 7.28539 | 24820 ft | 407 kts | 280° |
| 2026-05-05 19:40 | 47.39235 | 7.24521 | 25203 ft | 409 kts | 280° |
| 2026-05-05 19:41 | 47.39907 | 7.20433 | 25597 ft | 411 kts | 280° |
| 2026-05-05 19:41 | 47.40582 | 7.16318 | 25993 ft | 413 kts | 280° |
| 2026-05-05 19:41 | 47.41245 | 7.12179 | 26360 ft | 415 kts | 279° |
| 2026-05-05 19:41 | 47.41864 | 7.07990 | 26758 ft | 417 kts | 278° |
| 2026-05-05 19:42 | 47.42467 | 7.03793 | 27135 ft | 420 kts | 278° |
| 2026-05-05 19:42 | 47.43076 | 6.99561 | 27513 ft | 422 kts | 278° |
| 2026-05-05 19:42 | 47.43692 | 6.95299 | 27880 ft | 424 kts | 278° |
| 2026-05-05 19:42 | 47.44313 | 6.91022 | 28240 ft | 427 kts | 278° |
| 2026-05-05 19:43 | 47.44937 | 6.86724 | 28587 ft | 429 kts | 278° |
| 2026-05-05 19:43 | 47.45565 | 6.82402 | 28935 ft | 431 kts | 278° |
| 2026-05-05 19:43 | 47.46187 | 6.78105 | 29280 ft | 434 kts | 278° |
| 2026-05-05 19:43 | 47.46818 | 6.73733 | 29598 ft | 436 kts | 278° |
| 2026-05-05 19:44 | 47.47510 | 6.69350 | 29889 ft | 442 kts | 283° |
| 2026-05-05 19:44 | 47.48704 | 6.65119 | 30173 ft | 450 kts | 295° |
| 2026-05-05 19:44 | 47.50493 | 6.61275 | 30491 ft | 458 kts | 306° |
| 2026-05-05 19:44 | 47.52612 | 6.57722 | 30785 ft | 461 kts | 309° |
| 2026-05-05 19:45 | 47.54797 | 6.54230 | 31083 ft | 463 kts | 309° |
| 2026-05-05 19:45 | 47.56999 | 6.50718 | 31393 ft | 465 kts | 309° |
| 2026-05-05 19:45 | 47.59165 | 6.47230 | 31697 ft | 467 kts | 309° |
| 2026-05-05 19:45 | 47.61364 | 6.43652 | 31962 ft | 470 kts | 309° |
| 2026-05-05 19:46 | 47.63565 | 6.40050 | 32243 ft | 472 kts | 309° |
| 2026-05-05 19:46 | 47.65764 | 6.36437 | 32490 ft | 473 kts | 309° |
| 2026-05-05 19:46 | 47.67972 | 6.32798 | 32717 ft | 475 kts | 309° |
| 2026-05-05 19:46 | 47.70186 | 6.29143 | 32919 ft | 477 kts | 309° |
| 2026-05-05 19:47 | 47.72407 | 6.25470 | 33107 ft | 479 kts | 309° |
| 2026-05-05 19:47 | 47.74633 | 6.21784 | 33272 ft | 480 kts | 309° |
| 2026-05-05 19:47 | 47.76868 | 6.18077 | 33450 ft | 480 kts | 309° |
| 2026-05-05 19:47 | 47.79097 | 6.14376 | 33671 ft | 480 kts | 309° |
| 2026-05-05 19:48 | 47.81296 | 6.10720 | 33846 ft | 480 kts | 309° |
| 2026-05-05 19:48 | 47.85744 | 6.03306 | 33858 ft | 479 kts | 309° |
| 2026-05-05 19:49 | 47.90180 | 5.95890 | 33856 ft | 480 kts | 309° |
| 2026-05-05 19:49 | 47.94619 | 5.88449 | 33854 ft | 480 kts | 309° |
| 2026-05-05 19:50 | 47.99055 | 5.80992 | 33851 ft | 480 kts | 309° |
| 2026-05-05 19:50 | 48.03488 | 5.73520 | 33844 ft | 480 kts | 309° |
| 2026-05-05 19:51 | 48.07922 | 5.66026 | 33846 ft | 481 kts | 309° |
| 2026-05-05 19:51 | 48.12350 | 5.58520 | 33840 ft | 481 kts | 309° |
| 2026-05-05 19:52 | 48.16775 | 5.50997 | 33829 ft | 482 kts | 309° |
| 2026-05-05 19:52 | 48.21206 | 5.43443 | 33839 ft | 482 kts | 309° |
| 2026-05-05 19:53 | 48.25632 | 5.35878 | 33840 ft | 483 kts | 309° |
| 2026-05-05 19:53 | 48.30063 | 5.28283 | 33832 ft | 483 kts | 309° |
| 2026-05-05 19:54 | 48.34467 | 5.20712 | 33827 ft | 484 kts | 309° |
| 2026-05-05 19:54 | 48.38895 | 5.13078 | 33828 ft | 484 kts | 309° |
| 2026-05-05 19:55 | 48.43321 | 5.05425 | 33827 ft | 485 kts | 309° |
| 2026-05-05 19:55 | 48.47745 | 4.97754 | 33825 ft | 485 kts | 309° |
| 2026-05-05 19:56 | 48.52171 | 4.90056 | 33833 ft | 485 kts | 309° |
| 2026-05-05 19:56 | 48.56592 | 4.82345 | 33830 ft | 485 kts | 309° |
| 2026-05-05 19:57 | 48.60975 | 4.74678 | 33829 ft | 485 kts | 309° |
| 2026-05-05 19:57 | 48.65383 | 4.66946 | 33826 ft | 485 kts | 310° |
| 2026-05-05 19:58 | 48.69787 | 4.59196 | 33825 ft | 485 kts | 310° |
| 2026-05-05 19:58 | 48.74184 | 4.51435 | 33807 ft | 485 kts | 310° |
| 2026-05-05 19:59 | 48.78578 | 4.43659 | 33807 ft | 485 kts | 310° |
| 2026-05-05 19:59 | 48.82969 | 4.35865 | 33804 ft | 485 kts | 310° |
| 2026-05-05 20:00 | 48.87328 | 4.28105 | 33806 ft | 485 kts | 310° |
| 2026-05-05 20:00 | 48.91706 | 4.20286 | 33804 ft | 486 kts | 310° |
| 2026-05-05 20:01 | 48.96085 | 4.12445 | 33807 ft | 486 kts | 310° |
| 2026-05-05 20:01 | 49.00468 | 4.04572 | 33806 ft | 486 kts | 310° |
| 2026-05-05 20:02 | 49.04820 | 3.96733 | 33800 ft | 487 kts | 310° |
| 2026-05-05 20:02 | 49.09196 | 3.88827 | 33803 ft | 488 kts | 310° |
| 2026-05-05 20:03 | 49.13569 | 3.80903 | 33803 ft | 488 kts | 310° |
| 2026-05-05 20:03 | 49.17940 | 3.72957 | 33808 ft | 489 kts | 310° |
| 2026-05-05 20:04 | 49.22308 | 3.64993 | 33810 ft | 489 kts | 310° |
| 2026-05-05 20:04 | 49.26681 | 3.56996 | 33817 ft | 489 kts | 310° |
| 2026-05-05 20:05 | 49.31047 | 3.48986 | 33824 ft | 490 kts | 310° |
| 2026-05-05 20:05 | 49.35385 | 3.41006 | 33825 ft | 490 kts | 310° |
| 2026-05-05 20:06 | 49.39742 | 3.32965 | 33828 ft | 490 kts | 310° |
| 2026-05-05 20:06 | 49.44097 | 3.24902 | 33835 ft | 490 kts | 310° |
| 2026-05-05 20:07 | 49.48443 | 3.16832 | 33830 ft | 490 kts | 310° |
| 2026-05-05 20:07 | 49.52790 | 3.08737 | 33832 ft | 490 kts | 309° |
| 2026-05-05 20:08 | 49.57133 | 3.00625 | 33837 ft | 491 kts | 309° |
| 2026-05-05 20:08 | 49.61452 | 2.92531 | 33838 ft | 491 kts | 309° |
| 2026-05-05 20:09 | 49.65784 | 2.84387 | 33848 ft | 491 kts | 309° |
| 2026-05-05 20:09 | 49.70123 | 2.76203 | 33847 ft | 491 kts | 309° |
| 2026-05-05 20:10 | 49.74429 | 2.68059 | 33857 ft | 492 kts | 309° |
| 2026-05-05 20:10 | 49.78757 | 2.59847 | 33856 ft | 492 kts | 309° |
| 2026-05-05 20:11 | 49.83078 | 2.51623 | 33859 ft | 492 kts | 309° |
| 2026-05-05 20:11 | 49.87397 | 2.43377 | 33865 ft | 492 kts | 309° |
| 2026-05-05 20:12 | 49.91712 | 2.35114 | 33872 ft | 492 kts | 309° |
| 2026-05-05 20:12 | 49.96011 | 2.26856 | 33886 ft | 491 kts | 309° |
| 2026-05-05 20:13 | 50.00303 | 2.18584 | 33893 ft | 491 kts | 308° |
| 2026-05-05 20:13 | 50.04582 | 2.10311 | 33892 ft | 490 kts | 308° |
| 2026-05-05 20:14 | 50.08832 | 2.02072 | 33894 ft | 490 kts | 308° |
| 2026-05-05 20:14 | 50.13100 | 1.93784 | 33900 ft | 489 kts | 308° |
| 2026-05-05 20:15 | 50.17373 | 1.85518 | 33897 ft | 489 kts | 311° |
| 2026-05-05 20:15 | 50.22205 | 1.78052 | 33901 ft | 489 kts | 316° |
| 2026-05-05 20:16 | 50.27073 | 1.70738 | 33904 ft | 489 kts | 316° |
| 2026-05-05 20:16 | 50.31949 | 1.63313 | 33881 ft | 489 kts | 315° |
| 2026-05-05 20:16 | 50.34373 | 1.59599 | 33517 ft | 487 kts | 315° |
| 2026-05-05 20:17 | 50.36793 | 1.55884 | 32823 ft | 487 kts | 315° |
| 2026-05-05 20:17 | 50.39215 | 1.52157 | 31821 ft | 489 kts | 315° |
| 2026-05-05 20:17 | 50.41653 | 1.48401 | 30648 ft | 492 kts | 316° |
| 2026-05-05 20:17 | 50.44094 | 1.44636 | 29398 ft | 492 kts | 316° |
| 2026-05-05 20:18 | 50.46515 | 1.40900 | 28619 ft | 483 kts | 316° |
| 2026-05-05 20:18 | 50.48864 | 1.37270 | 28156 ft | 473 kts | 315° |
| 2026-05-05 20:18 | 50.51164 | 1.33630 | 27605 ft | 465 kts | 314° |
| 2026-05-05 20:18 | 50.53356 | 1.29918 | 27000 ft | 460 kts | 312° |
| 2026-05-05 20:19 | 50.55495 | 1.26212 | 26420 ft | 454 kts | 312° |
| 2026-05-05 20:19 | 50.56893 | 1.23788 | 26030 ft | 451 kts | 312° |
| 2026-05-05 20:19 | 50.59012 | 1.20176 | 25468 ft | 446 kts | 314° |
| 2026-05-05 20:19 | 50.61180 | 1.16711 | 24896 ft | 441 kts | 315° |
| 2026-05-05 20:20 | 50.63349 | 1.13333 | 24322 ft | 436 kts | 315° |
| 2026-05-05 20:20 | 50.66192 | 1.08903 | 23551 ft | 432 kts | 315° |
| 2026-05-05 20:20 | 50.67625 | 1.06653 | 23169 ft | 428 kts | 315° |
| 2026-05-05 20:20 | 50.69715 | 1.03354 | 22608 ft | 421 kts | 315° |
| 2026-05-05 20:21 | 50.71746 | 1.00134 | 22062 ft | 415 kts | 315° |
| 2026-05-05 20:21 | 50.73767 | 0.96922 | 21504 ft | 409 kts | 315° |
| 2026-05-05 20:21 | 50.75751 | 0.93762 | 20978 ft | 403 kts | 315° |
| 2026-05-05 20:21 | 50.77710 | 0.90639 | 20442 ft | 397 kts | 315° |
| 2026-05-05 20:22 | 50.79640 | 0.87559 | 19915 ft | 391 kts | 315° |
| 2026-05-05 20:22 | 50.81540 | 0.84522 | 19388 ft | 386 kts | 315° |
| 2026-05-05 20:22 | 50.83414 | 0.81524 | 18875 ft | 381 kts | 315° |
| 2026-05-05 20:22 | 50.85266 | 0.78558 | 18317 ft | 378 kts | 315° |
| 2026-05-05 20:23 | 50.87127 | 0.75577 | 18017 ft | 386 kts | 315° |
| 2026-05-05 20:23 | 50.88987 | 0.72592 | 17938 ft | 372 kts | 315° |
| 2026-05-05 20:23 | 50.90752 | 0.69754 | 17934 ft | 352 kts | 315° |
| 2026-05-05 20:23 | 50.92423 | 0.67062 | 17938 ft | 333 kts | 315° |
| 2026-05-05 20:24 | 50.94003 | 0.64513 | 17936 ft | 315 kts | 315° |
| 2026-05-05 20:24 | 50.95496 | 0.62104 | 17934 ft | 297 kts | 316° |
| 2026-05-05 20:24 | 50.96908 | 0.59827 | 17933 ft | 283 kts | 315° |
| 2026-05-05 20:24 | 50.98301 | 0.57577 | 18040 ft | 289 kts | 315° |
| 2026-05-05 20:25 | 50.99713 | 0.55296 | 18057 ft | 289 kts | 315° |
| 2026-05-05 20:25 | 51.01100 | 0.53049 | 18073 ft | 288 kts | 316° |
| 2026-05-05 20:25 | 51.02505 | 0.50774 | 18077 ft | 288 kts | 316° |
| 2026-05-05 20:25 | 51.03906 | 0.48507 | 17984 ft | 286 kts | 316° |
| 2026-05-05 20:26 | 51.05302 | 0.46247 | 17695 ft | 285 kts | 316° |
| 2026-05-05 20:26 | 51.06683 | 0.44002 | 17313 ft | 283 kts | 316° |
| 2026-05-05 20:26 | 51.08068 | 0.41795 | 16760 ft | 280 kts | 317° |
| 2026-05-05 20:26 | 51.09474 | 0.39658 | 16194 ft | 278 kts | 318° |
| 2026-05-05 20:27 | 51.10876 | 0.37554 | 15648 ft | 275 kts | 318° |
| 2026-05-05 20:27 | 51.12260 | 0.35469 | 15112 ft | 273 kts | 317° |
| 2026-05-05 20:27 | 51.13612 | 0.33418 | 14582 ft | 270 kts | 317° |
| 2026-05-05 20:27 | 51.14965 | 0.31356 | 14056 ft | 268 kts | 317° |
| 2026-05-05 20:28 | 51.16305 | 0.29309 | 13484 ft | 265 kts | 317° |
| 2026-05-05 20:28 | 51.17629 | 0.27281 | 12924 ft | 262 kts | 317° |
| 2026-05-05 20:28 | 51.18939 | 0.25272 | 12334 ft | 259 kts | 317° |
| 2026-05-05 20:28 | 51.20231 | 0.23289 | 11747 ft | 257 kts | 317° |
| 2026-05-05 20:29 | 51.21511 | 0.21325 | 11190 ft | 254 kts | 317° |
| 2026-05-05 20:29 | 51.22781 | 0.19375 | 10632 ft | 252 kts | 317° |
| 2026-05-05 20:29 | 51.24035 | 0.17446 | 10285 ft | 251 kts | 317° |
| 2026-05-05 20:29 | 51.25293 | 0.15509 | 9919 ft | 250 kts | 317° |
| 2026-05-05 20:30 | 51.26536 | 0.13594 | 9554 ft | 247 kts | 317° |
| 2026-05-05 20:30 | 51.27772 | 0.11691 | 9213 ft | 247 kts | 317° |
| 2026-05-05 20:30 | 51.28987 | 0.09818 | 8862 ft | 244 kts | 317° |
| 2026-05-05 20:30 | 51.30209 | 0.07931 | 8517 ft | 244 kts | 317° |
| 2026-05-05 20:31 | 51.31420 | 0.06063 | 8188 ft | 241 kts | 317° |
| 2026-05-05 20:31 | 51.32583 | 0.04155 | 7918 ft | 239 kts | 308° |
| 2026-05-05 20:31 | 51.33259 | 0.01718 | 7735 ft | 244 kts | 282° |
| 2026-05-05 20:31 | 51.33392 | -0.00983 | 7520 ft | 242 kts | 275° |
| 2026-05-05 20:32 | 51.33491 | -0.03668 | 7126 ft | 242 kts | 276° |
| 2026-05-05 20:32 | 51.33608 | -0.06349 | 6717 ft | 240 kts | 277° |
| 2026-05-05 20:32 | 51.33742 | -0.09010 | 6293 ft | 238 kts | 277° |
| 2026-05-05 20:32 | 51.33881 | -0.11645 | 5737 ft | 237 kts | 277° |
| 2026-05-05 20:33 | 51.34023 | -0.14275 | 5190 ft | 237 kts | 277° |
| 2026-05-05 20:33 | 51.34116 | -0.16009 | 4844 ft | 236 kts | 277° |
| 2026-05-05 20:33 | 51.34173 | -0.17060 | 4633 ft | 236 kts | 278° |
| 2026-05-05 20:33 | 51.34269 | -0.18823 | 4276 ft | 235 kts | 277° |
| 2026-05-05 20:34 | 51.34411 | -0.21418 | 4053 ft | 236 kts | 277° |
| 2026-05-05 20:34 | 51.34553 | -0.24003 | 3985 ft | 235 kts | 278° |
| 2026-05-05 20:34 | 51.35009 | -0.26488 | 3865 ft | 233 kts | 291° |
| 2026-05-05 20:34 | 51.35216 | -0.29079 | 3750 ft | 236 kts | 275° |
| 2026-05-05 20:35 | 51.35297 | -0.31743 | 3629 ft | 238 kts | 275° |
| 2026-05-05 20:35 | 51.35378 | -0.34344 | 3496 ft | 235 kts | 275° |
| 2026-05-05 20:35 | 51.35462 | -0.36962 | 3369 ft | 237 kts | 275° |
| 2026-05-05 20:35 | 51.35549 | -0.39584 | 3244 ft | 236 kts | 275° |
| 2026-05-05 20:36 | 51.35634 | -0.42207 | 3116 ft | 236 kts | 275° |
| 2026-05-05 20:36 | 51.35725 | -0.44820 | 2989 ft | 235 kts | 275° |
| 2026-05-05 20:36 | 51.35816 | -0.47422 | 2855 ft | 233 kts | 275° |
| 2026-05-05 20:36 | 51.35901 | -0.49941 | 2729 ft | 221 kts | 275° |
| 2026-05-05 20:37 | 51.35987 | -0.52338 | 2587 ft | 210 kts | 275° |
| 2026-05-05 20:37 | 51.36067 | -0.54620 | 2500 ft | 200 kts | 275° |
| 2026-05-05 20:37 | 51.36143 | -0.56818 | 2510 ft | 201 kts | 275° |
| 2026-05-05 20:37 | 51.36216 | -0.59039 | 2491 ft | 198 kts | 275° |
| 2026-05-05 20:38 | 51.36287 | -0.61253 | 2499 ft | 200 kts | 275° |
| 2026-05-05 20:38 | 51.36356 | -0.63463 | 2502 ft | 199 kts | 275° |
| 2026-05-05 20:38 | 51.36427 | -0.65681 | 2495 ft | 199 kts | 275° |
| 2026-05-05 20:38 | 51.36519 | -0.67880 | 2486 ft | 197 kts | 282° |
| 2026-05-05 20:39 | 51.37106 | -0.69809 | 2496 ft | 194 kts | 317° |
| 2026-05-05 20:39 | 51.38229 | -0.70884 | 2509 ft | 188 kts | 343° |
| 2026-05-05 20:39 | 51.39424 | -0.71759 | 2496 ft | 189 kts | 338° |
| 2026-05-05 20:39 | 51.40646 | -0.72483 | 2492 ft | 186 kts | 353° |
| 2026-05-05 20:40 | 51.41931 | -0.72780 | 2499 ft | 186 kts | 355° |
| 2026-05-05 20:40 | 51.43209 | -0.73060 | 2501 ft | 185 kts | 355° |
| 2026-05-05 20:40 | 51.44459 | -0.73339 | 2503 ft | 177 kts | 355° |
| 2026-05-05 20:40 | 51.45628 | -0.73532 | 2420 ft | 161 kts | 5° |
| 2026-05-05 20:41 | 51.46664 | -0.72994 | 2368 ft | 162 kts | 36° |
| 2026-05-05 20:41 | 51.47342 | -0.71604 | 2288 ft | 158 kts | 67° |
| 2026-05-05 20:41 | 51.47595 | -0.69866 | 2226 ft | 161 kts | 82° |
| 2026-05-05 20:41 | 51.47653 | -0.68096 | 2156 ft | 158 kts | 88° |
| 2026-05-05 20:42 | 51.47669 | -0.66310 | 2081 ft | 160 kts | 88° |
| 2026-05-05 20:42 | 51.47685 | -0.64577 | 2010 ft | 148 kts | 88° |
| 2026-05-05 20:42 | 51.47693 | -0.62917 | 1868 ft | 152 kts | 88° |
| 2026-05-05 20:42 | 51.47700 | -0.61269 | 1654 ft | 144 kts | 89° |
| 2026-05-05 20:43 | 51.47707 | -0.59618 | 1495 ft | 149 kts | 89° |
| 2026-05-05 20:43 | 51.47714 | -0.57986 | 1308 ft | 147 kts | 88° |
| 2026-05-05 20:43 | 51.47723 | -0.56326 | 1135 ft | 148 kts | 90° |
| 2026-05-05 20:43 | 51.47723 | -0.54702 | 911 ft | 148 kts | 89° |
| 2026-05-05 20:44 | 51.47730 | -0.53043 | 711 ft | 148 kts | 88° |
| 2026-05-05 20:44 | 51.47740 | -0.51389 | 481 ft | 147 kts | 88° |
| 2026-05-05 20:44 | 51.47743 | -0.49756 | 281 ft | 150 kts | 87° |
| 2026-05-05 20:44 | 51.47749 | -0.48108 | 100 ft | 142 kts | 87° |
| 2026-05-05 20:45 | 51.47759 | -0.45810 | 91 ft | 62 kts | 90° |
| 2026-05-05 20:45 | 51.47756 | -0.45329 | 95 ft | 30 kts | 90° |
| 2026-05-05 20:45 | 51.47674 | -0.45172 | 97 ft | 17 kts | 169° |
| 2026-05-05 20:46 | 51.47631 | -0.45177 | 96 ft | 0 kts | 186° |
| 2026-05-05 20:46 | 51.47619 | -0.45178 | 95 ft | 5 kts | 185° |
| 2026-05-05 20:47 | 51.47568 | -0.45186 | 94 ft | 9 kts | 189° |
| 2026-05-05 20:47 | 51.47515 | -0.45248 | 95 ft | 11 kts | 239° |
| 2026-05-05 20:47 | 51.47506 | -0.45379 | 95 ft | 13 kts | 270° |
| 2026-05-05 20:47 | 51.47509 | -0.45517 | 97 ft | 13 kts | 271° |
| 2026-05-05 20:48 | 51.47515 | -0.45764 | 93 ft | 26 kts | 274° |
| 2026-05-05 20:48 | 51.47518 | -0.46048 | 94 ft | 25 kts | 270° |
| 2026-05-05 20:48 | 51.47458 | -0.46155 | 95 ft | 11 kts | 171° |
| 2026-05-05 20:48 | 51.47378 | -0.46134 | 95 ft | 8 kts | 184° |
| 2026-05-05 20:49 | 51.47348 | -0.46181 | 98 ft | 0 kts | 246° |